sim
Sign-in with your pilot id or email,
or register
Callsign
Passwort

Schedule Details

Flight Number: DLH1959 (2)
Departure: Ancona Airport (LIPY) at 15:35
Arrival: Munich Airport (EDDM) at 16:50
Route: Lufthansa Passenger Schedule. Enter filed route here before submitting Pirep.

Weather Information
Getting current METAR information for LIPY 262220Z AUTO 18004KT 9999 OVC180/// 14/09 Q1001
Getting current METAR information for EDDM 262220Z 23017KT 9999 SCT022 BKN031 07/04 Q1002 NOSIG

Schedule Frequency

Route Map